ADDS METAR Data INFO
IDs: Format: Raw Decoded Include TAF

Data at: 2113 UTC 22 Oct 2017

KELM 222053Z 16009KT 10SM CLR 23/11 A3024 RMK AO2 SLP241 T02280111 56014
KELM 221953Z 18005KT 10SM CLR 23/11 A3025 RMK AO2 SLP244 T02330111
KELM 221853Z 19004KT 10SM CLR 24/12 A3026 RMK AO2 SLP247 T02390117
KELM 221753Z 20010KT 10SM CLR 24/11 A3028 RMK AO2 SLP254 T02440111 10244 20033 56018
KELM 221653Z 00000KT 10SM CLR 22/11 A3030 RMK AO2 SLP261 T02220111
KELM 221553Z 00000KT 10SM CLR 19/09 A3032 RMK AO2 SLP269 T01940094
KELM 221453Z 00000KT 10SM CLR 16/08 A3034 RMK AO2 SLP276 T01560083 58010
KELM 221353Z 00000KT 10SM CLR 11/08 A3035 RMK AO2 SLP282 T01060078
KELM 221253Z 09003KT 10SM CLR 07/07 A3036 RMK AO2 SLP287 T00720067
KELM 221153Z 00000KT 10SM CLR 04/04 A3037 RMK AO2 SLP288 T00390039 10067 20028 51010
KELM 221053Z 27004KT 10SM CLR 03/03 A3036 RMK AO2 SLP285 T00330028
KELM 220958Z 00000KT 4SM BR CLR 04/04 A3035 RMK AO2 T00390039
KELM 220953Z 27003KT 1 1/2SM BR CLR 03/03 A3035 RMK AO2 SLP281 T00330033
KELM 220949Z AUTO 00000KT 1 3/4SM BR CLR 03/03 A3035 RMK AO2
KELM 220922Z AUTO 00000KT 5SM BR CLR 04/04 A3034 RMK AO2 T00440044
KELM 220910Z AUTO 00000KT 1 3/4SM BR CLR 03/03 A3034 RMK AO2 T00330028
KELM 220853Z AUTO 00000KT 10SM CLR 04/04 A3034 RMK AO2 SLP273 T00440039 53006
KELM 220753Z AUTO 00000KT 10SM CLR 06/05 A3033 RMK AO2 SLP270 T00560050
KELM 220653Z AUTO 00000KT 10SM CLR 04/04 A3032 RMK AO2 SLP267 T00440044
KELM 220553Z AUTO 00000KT 10SM CLR 07/05 A3032 RMK AO2 SLP267 T00670050 10122 20056 56005
KELM 220453Z AUTO 00000KT 10SM CLR 07/06 A3032 RMK AO2 SLP268 T00670061 402440006
KELM 220353Z AUTO 00000KT 10SM CLR 07/06 A3032 RMK AO2 SLP270 T00720061
KELM 220253Z AUTO 00000KT 10SM CLR 08/06 A3033 RMK AO2 SLP275 T00780061 53005
KELM 220153Z AUTO 00000KT 10SM CLR 08/07 A3032 RMK AO2 SLP273 T00780067
KELM 220053Z AUTO 00000KT 6SM BR CLR 09/08 A3032 RMK AO2 SLP273 T00940083
KELM 212353Z AUTO 00000KT 10SM CLR 12/09 A3032 RMK AO2 SLP271 T01220089 10244 20111 53013
KELM 212253Z AUTO 00000KT 10SM CLR 16/10 A3030 RMK AO2 SLP264 T01560100
KELM 212153Z AUTO 00000KT 9SM CLR 19/11 A3029 RMK AO2 SLP260 T01890111
KELM 212053Z AUTO 00000KT 10SM CLR 23/08 A3028 RMK AO2 SLP254 T02280083 56005
KELM 211953Z AUTO 00000KT 10SM CLR 24/08 A3028 RMK AO2 SLP254 T02440083
KELM 211853Z AUTO 06005KT 10SM CLR 23/08 A3028 RMK AO2 SLP255 T02330083
KELM 211753Z 07003KT 10SM CLR 22/07 A3030 RMK AO2 SLP260 T02220072 10222 20017 58019
KELM 211653Z 00000KT 10SM CLR 19/07 A3032 RMK AO2 SLP268 T01890067
KELM 211553Z 00000KT 10SM CLR 15/07 A3033 RMK AO2 SLP275 T01500072
KELM 211453Z 00000KT 10SM CLR 12/06 A3035 RMK AO2 SLP283 T01170061 50003
KELM 211353Z 00000KT 10SM CLR 08/06 A3036 RMK AO2 SLP286 T00780056
KELM 211253Z 00000KT 10SM CLR 05/04 A3036 RMK AO2 SLP288 T00500039
KELM 211153Z 00000KT 10SM CLR 02/01 A3034 RMK AO2 SLP282 T00170006 10039 20006 53018
KELM 211053Z 00000KT 6SM BR CLR 01/01 A3032 RMK AO2 SLP273 T00110011
KELM 210953Z 00000KT 6SM BR CLR 02/01 A3031 RMK AO2 SLP266 T00170011